Time;durP1;ratioP1;P1;durP2;ratioP2;P2;SDS_P1;SDS_P2;PMS_P1;PMS_P2;Temp;Humidity;BMP_temperature;BMP_pressure;BME280_temperature;BME280_humidity;BME280_pressure;Samples;Min_cycle;Max_cycle;Signal;HPM_P1;HPM_P2
2023/01/05 15:03:18;;;;;;;27.52;5.57;;;10.70;83.00;;;;;;5111211;27;20105;-51
2023/01/05 15:06:12;;;;;;;27.83;6.18;;;10.80;83.40;;;;;;5111234;28;20056;-56
2023/01/05 15:09:06;;;;;;;22.83;6.32;;;10.80;83.30;;;;;;5110492;28;20043;-54
2023/01/05 15:12:09;;;;;;;37.03;5.78;;;10.80;83.20;;;;;;5110790;28;20121;-51
2023/01/05 15:14:59;;;;;;;30.70;6.05;;;10.80;83.00;;;;;;5110322;28;20483;-53
2023/01/05 15:17:28;;;;;;;17.85;5.57;;;10.70;83.10;;;;;;5110557;28;20024;-49
2023/01/05 15:20:30;;;;;;;26.23;6.63;;;10.80;82.90;;;;;;5108897;28;20032;-53
2023/01/05 15:23:21;;;;;;;23.45;5.68;;;10.80;82.90;;;;;;5109113;28;20024;-50
2023/01/05 15:26:28;;;;;;;26.15;7.13;;;10.80;82.60;;;;;;5110705;28;20031;-53
2023/01/05 15:29:31;;;;;;;27.58;6.00;;;10.80;82.70;;;;;;5109888;28;20063;-51
2023/01/05 15:32:02;;;;;;;29.45;6.68;;;10.80;82.60;;;;;;5110006;28;20058;-54
2023/01/05 15:35:08;;;;;;;18.05;5.85;;;10.80;82.70;;;;;;5110054;28;20399;-50
2023/01/05 15:37:38;;;;;;;23.05;6.40;;;10.80;82.60;;;;;;5089218;28;20036;-52
2023/01/05 15:40:21;;;;;;;17.52;5.28;;;10.80;82.50;;;;;;5109777;28;20530;-53
2023/01/05 15:42:52;;;;;;;27.85;9.05;;;10.80;82.60;;;;;;5110001;28;20022;-53
2023/01/05 15:45:24;;;;;;;37.50;8.02;;;10.80;82.80;;;;;;5109596;28;20379;-57
2023/01/05 15:47:51;;;;;;;28.00;6.93;;;10.70;83.00;;;;;;5109745;28;20024;-53
2023/01/05 15:50:23;;;;;;;28.40;9.50;;;10.80;83.00;;;;;;5109405;28;20020;-51
2023/01/05 15:52:55;;;;;;;33.63;10.02;;;10.70;83.00;;;;;;5108119;28;20073;-53
2023/01/05 15:55:21;;;;;;;28.48;8.82;;;10.80;83.00;;;;;;5108150;28;20031;-53
2023/01/05 15:58:03;;;;;;;31.77;7.65;;;10.70;83.20;;;;;;5109145;28;20032;-51
2023/01/05 16:00:31;;;;;;;27.63;7.70;;;10.70;83.50;;;;;;5110169;28;20069;-51
2023/01/05 16:02:58;;;;;;;31.30;9.65;;;10.70;83.70;;;;;;5109187;28;20039;-52
2023/01/05 16:05:26;;;;;;;29.10;9.88;;;10.70;83.70;;;;;;5109894;28;20060;-53
2023/01/05 16:08:02;;;;;;;29.75;8.27;;;10.80;83.60;;;;;;5109380;28;20019;-51
2023/01/05 16:10:33;;;;;;;31.92;8.43;;;10.80;83.80;;;;;;5110015;28;20372;-52
2023/01/05 16:13:17;;;;;;;25.23;8.43;;;10.80;83.80;;;;;;5103976;28;20036;-52
2023/01/05 16:15:50;;;;;;;29.30;7.85;;;10.80;83.80;;;;;;5095785;28;20024;-51
2023/01/05 16:18:23;;;;;;;34.83;10.25;;;10.80;83.90;;;;;;5096274;28;20032;-55
2023/01/05 16:20:51;;;;;;;34.35;10.48;;;10.80;84.10;;;;;;5094264;28;20368;-52
2023/01/05 16:23:52;;;;;;;28.13;10.20;;;10.80;84.10;;;;;;5096187;28;20016;-52
2023/01/05 16:26:18;;;;;;;24.80;10.48;;;10.80;83.90;;;;;;5083339;28;20030;-53
2023/01/05 16:28:44;;;;;;;18.38;7.75;;;10.80;84.30;;;;;;5096210;28;20402;-55
2023/01/05 16:31:34;;;;;;;28.63;7.38;;;10.50;85.10;;;;;;5099059;28;20028;-54
2023/01/05 16:34:11;;;;;;;27.47;8.37;;;10.50;85.20;;;;;;5099378;28;20061;-54
2023/01/05 16:36:37;;;;;;;38.22;9.75;;;10.40;85.20;;;;;;5095640;28;20031;-50
2023/01/05 16:39:20;;;;;;;30.60;7.78;;;10.40;85.20;;;;;;5095237;28;20020;-56
2023/01/05 16:44:33;;;;;;;23.55;7.70;;;10.50;84.60;;;;;;5096430;28;20027;-53
2023/01/05 16:47:09;;;;;;;26.55;8.77;;;10.50;84.60;;;;;;5095692;28;20024;-49
2023/01/05 16:49:39;;;;;;;34.83;8.95;;;10.60;84.50;;;;;;5095115;28;20379;-55
2023/01/05 16:52:07;;;;;;;21.40;7.05;;;10.60;84.30;;;;;;5093657;28;20055;-53
2023/01/05 16:54:38;;;;;;;23.75;8.32;;;10.70;84.40;;;;;;5094781;28;20032;-53
2023/01/05 16:57:27;;;;;;;;;;;10.60;84.60;;;;;;5095630;28;20020;-52
2023/01/05 16:59:53;;;;;;;23.95;8.02;;;10.70;84.40;;;;;;5096116;28;20465;-55
2023/01/05 17:02:29;;;;;;;29.15;9.45;;;10.60;84.40;;;;;;5094950;28;20040;-58
2023/01/05 17:04:55;;;;;;;29.95;8.45;;;10.60;84.60;;;;;;5094798;28;20028;-58
2023/01/05 17:07:21;;;;;;;29.50;7.93;;;10.60;84.80;;;;;;5094932;28;20028;-57
2023/01/05 17:09:47;;;;;;;39.35;8.63;;;10.50;84.90;;;;;;5094704;28;20471;-58
2023/01/05 17:12:13;;;;;;;27.38;9.05;;;10.50;85.30;;;;;;5094837;28;20020;-59
2023/01/05 17:14:40;;;;;;;34.85;8.18;;;10.40;85.60;;;;;;5094736;28;20430;-61
2023/01/05 17:17:10;;;;;;;29.98;9.07;;;10.40;85.80;;;;;;5095970;28;20379;-56
2023/01/05 17:19:35;;;;;;;33.40;8.60;;;10.40;85.80;;;;;;5095429;28;20034;-57
2023/01/05 17:22:05;;;;;;;40.45;7.75;;;10.40;86.00;;;;;;5094478;28;20115;-58
2023/01/05 17:24:31;;;;;;;25.75;8.07;;;10.50;86.10;;;;;;5093735;28;20026;-59
2023/01/05 17:26:57;;;;;;;22.08;6.88;;;10.50;86.40;;;;;;5094865;28;20043;-57
2023/01/05 17:29:25;;;;;;;42.15;10.07;;;10.50;86.30;;;;;;5094937;28;20463;-59
2023/01/05 17:31:51;;;;;;;29.52;9.55;;;10.40;86.60;;;;;;5094703;28;20024;-57
2023/01/05 17:34:17;;;;;;;41.00;9.10;;;10.40;86.80;;;;;;5094691;28;20028;-57
2023/01/05 17:36:44;;;;;;;43.85;10.45;;;10.50;86.90;;;;;;5094473;28;20420;-57
2023/01/05 17:39:14;;;;;;;28.95;6.90;;;10.40;87.20;;;;;;5076805;28;20115;-59
2023/01/05 17:41:40;;;;;;;39.00;9.45;;;10.40;87.90;;;;;;5093522;28;20036;-58
2023/01/05 17:44:06;;;;;;;30.85;7.65;;;10.30;88.40;;;;;;5092889;28;20524;-59
2023/01/05 17:46:34;;;;;;;39.45;8.00;;;10.30;88.60;;;;;;5094055;28;20020;-58
2023/01/05 17:49:00;;;;;;;31.10;7.35;;;10.30;89.20;;;;;;5094234;28;20012;-58
2023/01/05 17:51:29;;;;;;;41.97;9.25;;;10.20;89.40;;;;;;5094116;28;20486;-60
2023/01/05 17:53:57;;;;;;;32.70;9.60;;;10.20;89.60;;;;;;5092938;28;20042;-58
2023/01/05 17:56:23;;;;;;;37.25;9.57;;;10.20;89.90;;;;;;5092751;28;20120;-56
2023/01/05 17:58:49;;;;;;;39.38;9.13;;;10.20;89.90;;;;;;5094525;28;20110;-59
2023/01/05 18:01:15;;;;;;;35.15;7.88;;;10.20;89.90;;;;;;5093853;28;20509;-58
2023/01/05 18:03:47;;;;;;;34.72;9.38;;;10.20;90.20;;;;;;5093022;28;20115;-58
2023/01/05 18:06:13;;;;;;;26.40;9.18;;;10.30;90.00;;;;;;5095095;28;20027;-60
2023/01/05 18:08:39;;;;;;;26.95;7.07;;;10.30;89.90;;;;;;5093040;28;20020;-57
2023/01/05 18:11:06;;;;;;;33.75;8.57;;;10.30;89.90;;;;;;5094304;28;20181;-58
2023/01/05 18:13:32;;;;;;;43.17;11.90;;;10.30;89.90;;;;;;5093988;28;20047;-59
2023/01/05 18:15:58;;;;;;;26.15;7.95;;;10.30;90.60;;;;;;5092798;28;20050;-56
2023/01/05 18:18:24;;;;;;;32.78;7.80;;;10.20;90.80;;;;;;5092333;28;20038;-60
2023/01/05 18:20:51;;;;;;;33.45;7.40;;;10.10;91.20;;;;;;5092246;28;20020;-57
2023/01/05 18:23:20;;;;;;;32.13;8.27;;;10.00;91.70;;;;;;5093391;28;20531;-58
2023/01/05 18:25:46;;;;;;;35.65;10.05;;;10.00;91.90;;;;;;5093814;28;20016;-56
2023/01/05 18:28:11;;;;;;;38.88;8.95;;;10.00;92.00;;;;;;5093429;28;20043;-58
2023/01/05 18:30:40;;;;;;;42.15;8.55;;;9.90;92.10;;;;;;5093662;28;20020;-59
2023/01/05 18:33:06;;;;;;;33.92;8.88;;;10.00;92.20;;;;;;5093571;28;20361;-60
2023/01/05 18:35:31;;;;;;;33.65;9.43;;;10.00;92.10;;;;;;5093282;28;20028;-60
2023/01/05 18:37:59;;;;;;;33.95;8.75;;;10.00;92.10;;;;;;5093497;28;20103;-61
2023/01/05 18:40:26;;;;;;;37.90;9.05;;;10.10;92.20;;;;;;5093868;28;20078;-59
2023/01/05 18:42:52;;;;;;;34.70;7.95;;;10.00;92.10;;;;;;5093706;28;20032;-60
2023/01/05 18:45:17;;;;;;;32.42;7.22;;;10.10;92.20;;;;;;5093090;28;20390;-60
2023/01/05 18:47:44;;;;;;;31.88;7.70;;;10.10;92.20;;;;;;5093948;28;20024;-62
2023/01/05 18:50:10;;;;;;;31.02;8.68;;;10.10;92.20;;;;;;5093235;28;20020;-60
2023/01/05 18:52:36;;;;;;;44.03;10.30;;;10.00;92.20;;;;;;5092631;28;20487;-52
2023/01/05 18:55:03;;;;;;;33.72;8.02;;;10.00;92.40;;;;;;5093453;28;20123;-52
2023/01/05 18:57:29;;;;;;;28.63;7.88;;;10.00;92.30;;;;;;5091690;28;20039;-51
2023/01/05 18:59:55;;;;;;;44.35;9.23;;;10.10;92.40;;;;;;5091721;28;20074;-51
2023/01/05 19:02:21;;;;;;;36.10;8.52;;;10.00;92.20;;;;;;5092934;28;20079;-56
2023/01/05 19:04:46;;;;;;;30.13;7.35;;;10.10;92.20;;;;;;5092570;28;20470;-54
2023/01/05 19:07:12;;;;;;;24.77;7.20;;;10.10;92.20;;;;;;5092991;28;20024;-50
2023/01/05 19:09:38;;;;;;;21.90;6.97;;;10.10;92.30;;;;;;5091859;28;20047;-53
2023/01/05 19:12:04;;;;;;;30.42;7.40;;;10.10;92.30;;;;;;5093084;28;20024;-53
2023/01/05 19:14:30;;;;;;;26.23;8.00;;;10.20;92.40;;;;;;5093025;28;20039;-53
2023/01/05 19:16:55;;;;;;;34.65;9.30;;;10.20;92.40;;;;;;5091635;28;20024;-51
2023/01/05 19:19:22;;;;;;;31.17;8.07;;;10.20;92.30;;;;;;5092752;28;20032;-53
2023/01/05 19:21:47;;;;;;;28.60;9.05;;;10.20;92.30;;;;;;5093107;28;20025;-53
2023/01/05 19:24:21;;;;;;;31.20;8.00;;;10.20;92.10;;;;;;5093009;28;20023;-48
2023/01/05 19:26:48;;;;;;;27.30;9.30;;;10.10;92.50;;;;;;5093904;28;20082;-53
2023/01/05 19:29:14;;;;;;;36.85;10.52;;;10.10;92.70;;;;;;5092756;28;20036;-50
2023/01/05 19:31:41;;;;;;;31.65;9.00;;;10.10;92.90;;;;;;5093283;28;20089;-51
2023/01/05 19:34:08;;;;;;;30.33;10.45;;;10.10;93.00;;;;;;5092917;28;20024;-53
2023/01/05 19:36:34;;;;;;;36.85;10.35;;;10.10;93.10;;;;;;5093010;28;20421;-55
2023/01/05 19:39:10;;;;;;;37.65;9.77;;;10.10;93.00;;;;;;5093114;28;20054;-55
2023/01/05 19:41:37;;;;;;;30.60;9.63;;;10.10;93.20;;;;;;5092998;28;20424;-55
2023/01/05 19:44:04;;;;;;;32.97;9.73;;;10.10;93.30;;;;;;5093027;28;20024;-54
2023/01/05 19:46:29;;;;;;;31.98;8.98;;;10.10;93.30;;;;;;5093102;28;20024;-51
2023/01/05 19:48:56;;;;;;;18.15;10.27;;;10.20;93.40;;;;;;5095593;28;20057;-52
2023/01/05 19:51:23;;;;;;;34.97;9.93;;;10.20;93.50;;;;;;5095072;28;20024;-50
2023/01/05 19:53:54;;;;;;;19.75;9.48;;;10.20;93.50;;;;;;5096548;28;20118;-52
2023/01/05 19:56:20;;;;;;;;;;;10.20;93.60;;;;;;5097147;28;20024;-51
2023/01/05 19:58:51;;;;;;;27.35;10.13;;;10.20;93.60;;;;;;5096301;28;19904;-53
2023/01/05 20:01:16;;;;;;;;;;;10.20;93.80;;;;;;5096910;28;20066;-48
2023/01/05 20:03:43;;;;;;;18.95;9.93;;;10.20;93.80;;;;;;5096897;28;19933;-53
2023/01/05 20:06:20;;;;;;;23.98;10.25;;;10.20;93.90;;;;;;5096728;28;20024;-54
2023/01/05 20:08:51;;;;;;;25.13;9.65;;;10.30;93.90;;;;;;5096723;28;20028;-54
2023/01/05 20:11:34;;;;;;;32.47;12.52;;;10.30;93.90;;;;;;5096287;28;20064;-56
2023/01/05 20:14:01;;;;;;;29.15;10.80;;;10.30;93.90;;;;;;5096630;28;20107;-53
2023/01/05 20:16:27;;;;;;;26.70;10.52;;;10.30;93.90;;;;;;5096819;28;20028;-52
2023/01/05 20:18:53;;;;;;;30.05;11.00;;;10.30;93.90;;;;;;5095922;28;20032;-53
2023/01/05 20:21:20;;;;;;;34.25;12.73;;;10.40;94.00;;;;;;5095228;28;20032;-54
2023/01/05 20:23:46;;;;;;;29.38;14.20;;;10.40;94.00;;;;;;5094837;28;20114;-53
2023/01/05 20:26:15;;;;;;;33.65;12.52;;;10.40;94.00;;;;;;5096201;28;20459;-53
2023/01/05 20:28:43;;;;;;;26.60;12.83;;;10.40;94.10;;;;;;5098794;28;20024;-56
2023/01/05 20:31:23;;;;;;;39.97;15.23;;;10.40;94.10;;;;;;5099164;28;20095;-51
2023/01/05 20:33:50;;;;;;;28.35;15.50;;;10.40;94.10;;;;;;5100483;28;20177;-60
2023/01/05 20:36:16;;;;;;;31.35;14.20;;;10.40;94.20;;;;;;5100732;28;20088;-61
2023/01/05 20:38:43;;;;;;;46.72;15.45;;;10.40;94.20;;;;;;5103052;28;20028;-59
2023/01/05 20:41:39;;;;;;;29.23;11.60;;;10.40;94.30;;;;;;5101333;28;20035;-59
2023/01/05 20:44:06;;;;;;;29.85;13.02;;;10.40;94.40;;;;;;5093545;28;20087;-61
2023/01/05 20:46:38;;;;;;;30.65;12.93;;;10.40;94.50;;;;;;5094352;28;20031;-58
2023/01/05 20:49:05;;;;;;;26.25;12.13;;;10.50;94.60;;;;;;5095846;28;20031;-57
2023/01/05 20:51:32;;;;;;;24.48;12.63;;;10.40;94.60;;;;;;5095652;28;20024;-60
2023/01/05 20:54:01;;;;;;;28.50;12.07;;;10.50;94.70;;;;;;5095537;28;20458;-58
2023/01/05 20:56:37;;;;;;;29.35;13.75;;;10.50;94.70;;;;;;5096221;28;20020;-61
2023/01/05 20:59:09;;;;;;;21.88;11.93;;;10.50;94.80;;;;;;5096926;28;20074;-53
